sensor_id;sensor_type;location;lat;lon;timestamp;P1;durP1;ratioP1;P2;durP2;ratioP2
22113;SDS011;11223;49.968;9.062;2023-03-12T00:02:10;8.33;;;7.40;;
22113;SDS011;11223;49.968;9.062;2023-03-12T00:04:36;7.33;;;5.67;;
22113;SDS011;11223;49.968;9.062;2023-03-12T00:07:02;8.20;;;7.33;;
22113;SDS011;11223;49.968;9.062;2023-03-12T00:09:30;7.10;;;5.50;;
22113;SDS011;11223;49.968;9.062;2023-03-12T00:11:58;7.68;;;6.95;;
22113;SDS011;11223;49.968;9.062;2023-03-12T00:14:24;8.93;;;6.70;;
22113;SDS011;11223;49.968;9.062;2023-03-12T00:16:49;10.27;;;6.40;;
22113;SDS011;11223;49.968;9.062;2023-03-12T00:19:15;7.40;;;6.43;;
22113;SDS011;11223;49.968;9.062;2023-03-12T00:21:40;6.70;;;6.03;;
22113;SDS011;11223;49.968;9.062;2023-03-12T00:24:06;7.50;;;5.37;;
22113;SDS011;11223;49.968;9.062;2023-03-12T00:26:32;8.52;;;6.15;;
22113;SDS011;11223;49.968;9.062;2023-03-12T00:28:58;6.03;;;4.82;;
22113;SDS011;11223;49.968;9.062;2023-03-12T00:31:28;6.70;;;5.17;;
22113;SDS011;11223;49.968;9.062;2023-03-12T00:33:56;8.57;;;6.28;;
22113;SDS011;11223;49.968;9.062;2023-03-12T00:36:25;5.63;;;4.80;;
22113;SDS011;11223;49.968;9.062;2023-03-12T00:38:52;6.63;;;5.93;;
22113;SDS011;11223;49.968;9.062;2023-03-12T00:41:19;8.35;;;6.38;;
22113;SDS011;11223;49.968;9.062;2023-03-12T00:43:45;6.13;;;5.50;;
22113;SDS011;11223;49.968;9.062;2023-03-12T00:46:12;7.65;;;6.47;;
22113;SDS011;11223;49.968;9.062;2023-03-12T00:48:37;7.13;;;6.40;;
22113;SDS011;11223;49.968;9.062;2023-03-12T00:51:04;6.22;;;5.00;;
22113;SDS011;11223;49.968;9.062;2023-03-12T00:53:30;8.13;;;5.18;;
22113;SDS011;11223;49.968;9.062;2023-03-12T00:55:55;8.67;;;6.40;;
22113;SDS011;11223;49.968;9.062;2023-03-12T00:58:21;6.70;;;4.93;;
22113;SDS011;11223;49.968;9.062;2023-03-12T01:00:46;8.80;;;6.27;;
22113;SDS011;11223;49.968;9.062;2023-03-12T01:03:12;7.13;;;5.30;;
22113;SDS011;11223;49.968;9.062;2023-03-12T01:05:38;10.37;;;6.70;;
22113;SDS011;11223;49.968;9.062;2023-03-12T01:08:05;6.00;;;5.38;;
22113;SDS011;11223;49.968;9.062;2023-03-12T01:10:31;5.70;;;5.20;;
22113;SDS011;11223;49.968;9.062;2023-03-12T01:12:57;7.03;;;6.20;;
22113;SDS011;11223;49.968;9.062;2023-03-12T01:15:23;5.60;;;4.83;;
22113;SDS011;11223;49.968;9.062;2023-03-12T01:17:48;7.63;;;5.27;;
22113;SDS011;11223;49.968;9.062;2023-03-12T01:20:15;7.55;;;5.35;;
22113;SDS011;11223;49.968;9.062;2023-03-12T01:22:41;7.90;;;5.40;;
22113;SDS011;11223;49.968;9.062;2023-03-12T01:25:08;5.70;;;5.20;;
22113;SDS011;11223;49.968;9.062;2023-03-12T01:27:34;9.52;;;6.03;;
22113;SDS011;11223;49.968;9.062;2023-03-12T01:29:59;6.13;;;4.93;;
22113;SDS011;11223;49.968;9.062;2023-03-12T01:32:25;6.63;;;5.37;;
22113;SDS011;11223;49.968;9.062;2023-03-12T01:34:50;6.50;;;5.60;;
22113;SDS011;11223;49.968;9.062;2023-03-12T01:37:16;8.60;;;6.40;;
22113;SDS011;11223;49.968;9.062;2023-03-12T01:39:41;5.40;;;4.90;;
22113;SDS011;11223;49.968;9.062;2023-03-12T01:42:07;9.57;;;6.23;;
22113;SDS011;11223;49.968;9.062;2023-03-12T01:44:53;6.30;;;5.20;;
22113;SDS011;11223;49.968;9.062;2023-03-12T01:47:27;7.28;;;5.50;;
22113;SDS011;11223;49.968;9.062;2023-03-12T01:49:57;6.80;;;5.25;;
22113;SDS011;11223;49.968;9.062;2023-03-12T01:52:31;8.38;;;5.80;;
22113;SDS011;11223;49.968;9.062;2023-03-12T01:55:10;6.88;;;5.22;;
22113;SDS011;11223;49.968;9.062;2023-03-12T01:57:47;7.03;;;5.30;;
22113;SDS011;11223;49.968;9.062;2023-03-12T02:00:23;6.00;;;5.10;;
22113;SDS011;11223;49.968;9.062;2023-03-12T02:02:50;6.22;;;4.88;;
22113;SDS011;11223;49.968;9.062;2023-03-12T02:08:07;6.35;;;5.38;;
22113;SDS011;11223;49.968;9.062;2023-03-12T02:10:34;7.53;;;4.53;;
22113;SDS011;11223;49.968;9.062;2023-03-12T02:13:00;7.63;;;6.50;;
22113;SDS011;11223;49.968;9.062;2023-03-12T02:15:25;6.30;;;5.73;;
22113;SDS011;11223;49.968;9.062;2023-03-12T02:17:51;6.50;;;5.60;;
22113;SDS011;11223;49.968;9.062;2023-03-12T02:20:22;7.40;;;5.65;;
22113;SDS011;11223;49.968;9.062;2023-03-12T02:23:08;5.95;;;5.30;;
22113;SDS011;11223;49.968;9.062;2023-03-12T02:25:43;6.38;;;4.60;;
22113;SDS011;11223;49.968;9.062;2023-03-12T02:28:12;8.73;;;6.22;;
22113;SDS011;11223;49.968;9.062;2023-03-12T02:30:40;7.75;;;4.45;;
22113;SDS011;11223;49.968;9.062;2023-03-12T02:33:08;4.63;;;4.22;;
22113;SDS011;11223;49.968;9.062;2023-03-12T02:35:35;5.35;;;4.85;;
22113;SDS011;11223;49.968;9.062;2023-03-12T02:38:01;6.63;;;4.82;;
22113;SDS011;11223;49.968;9.062;2023-03-12T02:40:32;8.30;;;5.40;;
22113;SDS011;11223;49.968;9.062;2023-03-12T02:43:02;5.80;;;5.20;;
22113;SDS011;11223;49.968;9.062;2023-03-12T02:45:31;8.93;;;5.15;;
22113;SDS011;11223;49.968;9.062;2023-03-12T02:47:59;6.22;;;5.07;;
22113;SDS011;11223;49.968;9.062;2023-03-12T02:50:25;8.45;;;5.57;;
22113;SDS011;11223;49.968;9.062;2023-03-12T02:52:51;8.27;;;5.07;;
22113;SDS011;11223;49.968;9.062;2023-03-12T02:55:16;5.53;;;4.90;;
22113;SDS011;11223;49.968;9.062;2023-03-12T02:57:42;6.20;;;5.27;;
22113;SDS011;11223;49.968;9.062;2023-03-12T03:00:08;6.53;;;4.80;;
22113;SDS011;11223;49.968;9.062;2023-03-12T03:02:38;7.65;;;6.78;;
22113;SDS011;11223;49.968;9.062;2023-03-12T03:05:05;6.45;;;5.72;;
22113;SDS011;11223;49.968;9.062;2023-03-12T03:07:31;5.85;;;5.25;;
22113;SDS011;11223;49.968;9.062;2023-03-12T03:09:56;6.30;;;5.30;;
22113;SDS011;11223;49.968;9.062;2023-03-12T03:12:28;7.10;;;5.57;;
22113;SDS011;11223;49.968;9.062;2023-03-12T03:14:57;4.25;;;3.85;;
22113;SDS011;11223;49.968;9.062;2023-03-12T03:17:23;8.80;;;4.33;;
22113;SDS011;11223;49.968;9.062;2023-03-12T03:19:49;6.20;;;4.30;;
22113;SDS011;11223;49.968;9.062;2023-03-12T03:22:16;6.18;;;5.55;;
22113;SDS011;11223;49.968;9.062;2023-03-12T03:24:42;7.45;;;5.97;;
22113;SDS011;11223;49.968;9.062;2023-03-12T03:27:07;10.13;;;5.30;;
22113;SDS011;11223;49.968;9.062;2023-03-12T03:29:33;7.50;;;4.33;;
22113;SDS011;11223;49.968;9.062;2023-03-12T03:31:59;7.20;;;6.60;;
22113;SDS011;11223;49.968;9.062;2023-03-12T03:34:24;7.10;;;4.50;;
22113;SDS011;11223;49.968;9.062;2023-03-12T03:36:50;6.53;;;4.83;;
22113;SDS011;11223;49.968;9.062;2023-03-12T03:39:16;6.57;;;5.50;;
22113;SDS011;11223;49.968;9.062;2023-03-12T03:41:42;5.53;;;4.30;;
22113;SDS011;11223;49.968;9.062;2023-03-12T03:44:08;6.80;;;5.30;;
22113;SDS011;11223;49.968;9.062;2023-03-12T03:46:33;6.32;;;4.10;;
22113;SDS011;11223;49.968;9.062;2023-03-12T03:49:00;5.10;;;4.60;;
22113;SDS011;11223;49.968;9.062;2023-03-12T03:51:25;6.30;;;4.30;;
22113;SDS011;11223;49.968;9.062;2023-03-12T03:53:51;4.45;;;3.95;;
22113;SDS011;11223;49.968;9.062;2023-03-12T03:56:17;4.20;;;3.80;;
22113;SDS011;11223;49.968;9.062;2023-03-12T03:58:43;9.07;;;4.27;;
22113;SDS011;11223;49.968;9.062;2023-03-12T04:01:09;5.03;;;4.27;;
22113;SDS011;11223;49.968;9.062;2023-03-12T04:03:39;6.78;;;3.83;;
22113;SDS011;11223;49.968;9.062;2023-03-12T04:06:05;5.20;;;4.10;;
22113;SDS011;11223;49.968;9.062;2023-03-12T04:08:32;7.93;;;4.60;;
22113;SDS011;11223;49.968;9.062;2023-03-12T04:11:04;5.45;;;4.95;;
22113;SDS011;11223;49.968;9.062;2023-03-12T04:13:35;5.25;;;4.07;;
22113;SDS011;11223;49.968;9.062;2023-03-12T04:16:01;8.10;;;5.10;;
22113;SDS011;11223;49.968;9.062;2023-03-12T04:18:27;5.13;;;4.63;;
22113;SDS011;11223;49.968;9.062;2023-03-12T04:20:52;7.10;;;5.27;;
22113;SDS011;11223;49.968;9.062;2023-03-12T04:23:18;4.20;;;3.50;;
22113;SDS011;11223;49.968;9.062;2023-03-12T04:25:44;5.17;;;4.17;;
22113;SDS011;11223;49.968;9.062;2023-03-12T04:28:09;4.80;;;3.93;;
22113;SDS011;11223;49.968;9.062;2023-03-12T04:30:35;7.50;;;3.83;;
22113;SDS011;11223;49.968;9.062;2023-03-12T04:33:02;3.67;;;3.35;;
22113;SDS011;11223;49.968;9.062;2023-03-12T04:35:28;7.97;;;4.18;;
22113;SDS011;11223;49.968;9.062;2023-03-12T04:37:54;5.10;;;3.80;;
22113;SDS011;11223;49.968;9.062;2023-03-12T04:40:20;5.73;;;4.20;;
22113;SDS011;11223;49.968;9.062;2023-03-12T04:42:45;5.93;;;4.60;;
22113;SDS011;11223;49.968;9.062;2023-03-12T04:45:11;5.55;;;3.80;;
22113;SDS011;11223;49.968;9.062;2023-03-12T04:47:37;6.40;;;4.53;;
22113;SDS011;11223;49.968;9.062;2023-03-12T04:50:03;5.40;;;3.70;;
22113;SDS011;11223;49.968;9.062;2023-03-12T04:52:29;6.30;;;4.13;;
22113;SDS011;11223;49.968;9.062;2023-03-12T04:54:55;4.30;;;3.90;;
22113;SDS011;11223;49.968;9.062;2023-03-12T04:57:21;5.97;;;3.80;;
22113;SDS011;11223;49.968;9.062;2023-03-12T04:59:46;4.07;;;3.77;;
22113;SDS011;11223;49.968;9.062;2023-03-12T05:02:12;4.40;;;3.60;;
22113;SDS011;11223;49.968;9.062;2023-03-12T05:04:38;7.03;;;3.63;;
22113;SDS011;11223;49.968;9.062;2023-03-12T05:07:03;4.90;;;4.43;;
22113;SDS011;11223;49.968;9.062;2023-03-12T05:09:29;7.23;;;6.50;;
22113;SDS011;11223;49.968;9.062;2023-03-12T05:11:55;5.27;;;4.40;;
22113;SDS011;11223;49.968;9.062;2023-03-12T05:14:20;5.90;;;4.40;;
22113;SDS011;11223;49.968;9.062;2023-03-12T05:16:46;5.27;;;3.70;;
22113;SDS011;11223;49.968;9.062;2023-03-12T05:19:11;6.40;;;4.23;;
22113;SDS011;11223;49.968;9.062;2023-03-12T05:21:38;5.50;;;4.10;;
22113;SDS011;11223;49.968;9.062;2023-03-12T05:24:06;3.50;;;3.17;;
22113;SDS011;11223;49.968;9.062;2023-03-12T05:26:32;6.82;;;3.53;;
22113;SDS011;11223;49.968;9.062;2023-03-12T05:28:59;6.63;;;3.93;;
22113;SDS011;11223;49.968;9.062;2023-03-12T05:31:26;3.30;;;3.00;;
22113;SDS011;11223;49.968;9.062;2023-03-12T05:33:52;5.22;;;3.40;;
22113;SDS011;11223;49.968;9.062;2023-03-12T05:36:18;4.47;;;4.05;;
22113;SDS011;11223;49.968;9.062;2023-03-12T05:38:44;3.90;;;3.30;;
22113;SDS011;11223;49.968;9.062;2023-03-12T05:41:24;4.63;;;3.58;;
22113;SDS011;11223;49.968;9.062;2023-03-12T05:43:51;5.80;;;3.33;;
22113;SDS011;11223;49.968;9.062;2023-03-12T05:46:18;5.60;;;2.80;;
22113;SDS011;11223;49.968;9.062;2023-03-12T05:48:43;3.30;;;3.00;;
22113;SDS011;11223;49.968;9.062;2023-03-12T05:51:09;3.10;;;2.60;;
22113;SDS011;11223;49.968;9.062;2023-03-12T05:53:35;3.70;;;3.23;;
22113;SDS011;11223;49.968;9.062;2023-03-12T05:56:01;5.20;;;3.70;;
22113;SDS011;11223;49.968;9.062;2023-03-12T05:58:36;4.38;;;3.05;;
22113;SDS011;11223;49.968;9.062;2023-03-12T06:01:02;3.25;;;2.95;;
22113;SDS011;11223;49.968;9.062;2023-03-12T06:03:34;5.13;;;3.80;;
22113;SDS011;11223;49.968;9.062;2023-03-12T06:06:00;4.13;;;3.47;;
22113;SDS011;11223;49.968;9.062;2023-03-12T06:08:26;4.73;;;3.20;;
22113;SDS011;11223;49.968;9.062;2023-03-12T06:10:52;6.33;;;4.33;;
22113;SDS011;11223;49.968;9.062;2023-03-12T06:13:19;4.25;;;3.92;;
22113;SDS011;11223;49.968;9.062;2023-03-12T06:15:46;5.45;;;3.08;;
22113;SDS011;11223;49.968;9.062;2023-03-12T06:18:12;7.97;;;3.50;;
22113;SDS011;11223;49.968;9.062;2023-03-12T06:20:38;3.20;;;2.90;;
22113;SDS011;11223;49.968;9.062;2023-03-12T06:23:03;3.40;;;3.10;;
22113;SDS011;11223;49.968;9.062;2023-03-12T06:25:29;6.20;;;4.20;;
22113;SDS011;11223;49.968;9.062;2023-03-12T06:27:54;7.70;;;4.40;;
22113;SDS011;11223;49.968;9.062;2023-03-12T06:30:20;5.67;;;4.87;;
22113;SDS011;11223;49.968;9.062;2023-03-12T06:32:45;4.43;;;4.03;;
22113;SDS011;11223;49.968;9.062;2023-03-12T06:35:11;6.60;;;3.50;;
22113;SDS011;11223;49.968;9.062;2023-03-12T06:37:36;4.17;;;3.77;;
22113;SDS011;11223;49.968;9.062;2023-03-12T06:40:02;5.27;;;3.77;;
22113;SDS011;11223;49.968;9.062;2023-03-12T06:42:29;5.70;;;3.78;;
22113;SDS011;11223;49.968;9.062;2023-03-12T06:44:54;5.23;;;3.57;;
22113;SDS011;11223;49.968;9.062;2023-03-12T06:47:20;7.73;;;5.10;;
22113;SDS011;11223;49.968;9.062;2023-03-12T06:49:46;4.77;;;2.77;;
22113;SDS011;11223;49.968;9.062;2023-03-12T06:52:11;5.30;;;4.40;;
22113;SDS011;11223;49.968;9.062;2023-03-12T06:54:37;5.43;;;4.30;;
22113;SDS011;11223;49.968;9.062;2023-03-12T06:57:03;4.17;;;3.70;;
22113;SDS011;11223;49.968;9.062;2023-03-12T06:59:28;6.53;;;4.23;;
22113;SDS011;11223;49.968;9.062;2023-03-12T07:01:54;3.40;;;2.70;;
22113;SDS011;11223;49.968;9.062;2023-03-12T07:04:19;5.77;;;3.83;;
22113;SDS011;11223;49.968;9.062;2023-03-12T07:06:45;5.20;;;3.47;;
22113;SDS011;11223;49.968;9.062;2023-03-12T07:09:16;4.00;;;3.00;;
22113;SDS011;11223;49.968;9.062;2023-03-12T07:11:42;4.82;;;3.20;;
22113;SDS011;11223;49.968;9.062;2023-03-12T07:14:08;5.00;;;3.45;;
22113;SDS011;11223;49.968;9.062;2023-03-12T07:16:33;8.83;;;4.20;;
22113;SDS011;11223;49.968;9.062;2023-03-12T07:18:59;3.10;;;2.85;;
22113;SDS011;11223;49.968;9.062;2023-03-12T07:21:25;7.93;;;3.63;;
22113;SDS011;11223;49.968;9.062;2023-03-12T07:23:51;5.80;;;3.47;;
22113;SDS011;11223;49.968;9.062;2023-03-12T07:26:17;4.63;;;3.10;;
22113;SDS011;11223;49.968;9.062;2023-03-12T07:28:43;8.50;;;4.20;;
22113;SDS011;11223;49.968;9.062;2023-03-12T07:31:09;4.32;;;3.88;;
22113;SDS011;11223;49.968;9.062;2023-03-12T07:33:35;3.53;;;3.03;;
22113;SDS011;11223;49.968;9.062;2023-03-12T07:36:01;5.17;;;4.57;;
22113;SDS011;11223;49.968;9.062;2023-03-12T07:38:27;7.28;;;5.10;;
22113;SDS011;11223;49.968;9.062;2023-03-12T07:40:53;7.00;;;4.83;;
22113;SDS011;11223;49.968;9.062;2023-03-12T07:43:20;8.05;;;5.45;;
22113;SDS011;11223;49.968;9.062;2023-03-12T07:45:46;6.27;;;5.63;;
22113;SDS011;11223;49.968;9.062;2023-03-12T07:48:11;5.60;;;4.77;;
22113;SDS011;11223;49.968;9.062;2023-03-12T07:50:37;7.70;;;5.63;;
22113;SDS011;11223;49.968;9.062;2023-03-12T07:53:03;6.83;;;4.73;;
22113;SDS011;11223;49.968;9.062;2023-03-12T07:55:30;6.80;;;5.47;;
22113;SDS011;11223;49.968;9.062;2023-03-12T07:57:56;6.35;;;4.85;;
22113;SDS011;11223;49.968;9.062;2023-03-12T08:00:23;7.80;;;5.20;;
22113;SDS011;11223;49.968;9.062;2023-03-12T08:02:50;6.72;;;4.78;;
22113;SDS011;11223;49.968;9.062;2023-03-12T08:05:15;5.07;;;4.57;;
22113;SDS011;11223;49.968;9.062;2023-03-12T08:07:41;6.10;;;5.20;;
22113;SDS011;11223;49.968;9.062;2023-03-12T08:10:07;5.93;;;5.30;;
22113;SDS011;11223;49.968;9.062;2023-03-12T08:12:33;5.70;;;4.03;;
22113;SDS011;11223;49.968;9.062;2023-03-12T08:15:01;5.20;;;3.83;;
22113;SDS011;11223;49.968;9.062;2023-03-12T08:17:30;5.00;;;4.18;;
22113;SDS011;11223;49.968;9.062;2023-03-12T08:19:55;5.83;;;3.90;;
22113;SDS011;11223;49.968;9.062;2023-03-12T08:22:21;5.60;;;4.27;;
22113;SDS011;11223;49.968;9.062;2023-03-12T08:24:47;4.40;;;3.90;;
22113;SDS011;11223;49.968;9.062;2023-03-12T08:27:12;4.43;;;3.23;;
22113;SDS011;11223;49.968;9.062;2023-03-12T08:29:38;4.40;;;3.03;;
22113;SDS011;11223;49.968;9.062;2023-03-12T08:32:04;2.78;;;2.55;;
22113;SDS011;11223;49.968;9.062;2023-03-12T08:34:31;2.95;;;2.70;;
22113;SDS011;11223;49.968;9.062;2023-03-12T08:36:58;4.38;;;2.67;;
22113;SDS011;11223;49.968;9.062;2023-03-12T08:39:24;4.27;;;3.30;;
22113;SDS011;11223;49.968;9.062;2023-03-12T08:41:49;4.55;;;2.55;;
22113;SDS011;11223;49.968;9.062;2023-03-12T08:44:19;5.25;;;2.95;;
22113;SDS011;11223;49.968;9.062;2023-03-12T08:46:45;2.45;;;2.25;;
22113;SDS011;11223;49.968;9.062;2023-03-12T08:49:11;3.30;;;2.33;;
22113;SDS011;11223;49.968;9.062;2023-03-12T08:51:37;4.68;;;2.45;;
22113;SDS011;11223;49.968;9.062;2023-03-12T08:54:03;3.47;;;2.93;;
22113;SDS011;11223;49.968;9.062;2023-03-12T08:56:29;5.07;;;3.20;;
22113;SDS011;11223;49.968;9.062;2023-03-12T08:58:59;3.50;;;2.75;;
22113;SDS011;11223;49.968;9.062;2023-03-12T09:01:24;4.35;;;2.90;;
22113;SDS011;11223;49.968;9.062;2023-03-12T09:03:50;4.27;;;3.67;;
22113;SDS011;11223;49.968;9.062;2023-03-12T09:06:18;4.15;;;3.00;;
22113;SDS011;11223;49.968;9.062;2023-03-12T09:08:44;3.63;;;2.93;;
22113;SDS011;11223;49.968;9.062;2023-03-12T09:11:11;3.03;;;2.70;;
22113;SDS011;11223;49.968;9.062;2023-03-12T09:13:38;3.25;;;2.90;;
22113;SDS011;11223;49.968;9.062;2023-03-12T09:16:05;2.72;;;2.45;;
22113;SDS011;11223;49.968;9.062;2023-03-12T09:18:32;7.95;;;3.60;;
22113;SDS011;11223;49.968;9.062;2023-03-12T09:20:58;4.15;;;3.75;;
22113;SDS011;11223;49.968;9.062;2023-03-12T09:23:24;4.83;;;2.67;;
22113;SDS011;11223;49.968;9.062;2023-03-12T09:25:50;4.45;;;3.00;;
22113;SDS011;11223;49.968;9.062;2023-03-12T09:28:17;3.80;;;3.50;;
22113;SDS011;11223;49.968;9.062;2023-03-12T09:30:42;2.63;;;2.43;;
22113;SDS011;11223;49.968;9.062;2023-03-12T09:33:08;4.63;;;2.63;;
22113;SDS011;11223;49.968;9.062;2023-03-12T09:35:34;10.93;;;3.27;;
22113;SDS011;11223;49.968;9.062;2023-03-12T09:38:00;3.70;;;3.10;;
22113;SDS011;11223;49.968;9.062;2023-03-12T09:40:28;4.80;;;3.63;;
22113;SDS011;11223;49.968;9.062;2023-03-12T09:42:56;5.22;;;3.80;;
22113;SDS011;11223;49.968;9.062;2023-03-12T09:45:30;4.15;;;3.60;;
22113;SDS011;11223;49.968;9.062;2023-03-12T09:48:00;6.57;;;4.18;;
22113;SDS011;11223;49.968;9.062;2023-03-12T09:50:32;4.20;;;3.88;;
22113;SDS011;11223;49.968;9.062;2023-03-12T09:53:20;3.45;;;3.05;;
22113;SDS011;11223;49.968;9.062;2023-03-12T09:55:47;3.83;;;3.25;;
22113;SDS011;11223;49.968;9.062;2023-03-12T09:58:17;4.47;;;3.88;;
22113;SDS011;11223;49.968;9.062;2023-03-12T10:01:00;4.00;;;3.60;;
22113;SDS011;11223;49.968;9.062;2023-03-12T10:06:59;4.47;;;4.05;;
22113;SDS011;11223;49.968;9.062;2023-03-12T10:21:12;5.82;;;4.38;;
22113;SDS011;11223;49.968;9.062;2023-03-12T10:23:44;6.07;;;5.20;;
22113;SDS011;11223;49.968;9.062;2023-03-12T10:29:09;4.32;;;3.90;;
22113;SDS011;11223;49.968;9.062;2023-03-12T10:31:40;5.35;;;4.03;;
22113;SDS011;11223;49.968;9.062;2023-03-12T10:34:30;4.93;;;3.90;;
22113;SDS011;11223;49.968;9.062;2023-03-12T10:39:52;4.00;;;3.70;;
22113;SDS011;11223;49.968;9.062;2023-03-12T10:42:25;5.80;;;4.00;;
22113;SDS011;11223;49.968;9.062;2023-03-12T10:44:55;4.10;;;3.70;;
22113;SDS011;11223;49.968;9.062;2023-03-12T10:47:43;5.70;;;4.10;;
22113;SDS011;11223;49.968;9.062;2023-03-12T10:50:17;5.28;;;4.82;;
22113;SDS011;11223;49.968;9.062;2023-03-12T10:52:45;4.60;;;4.15;;
22113;SDS011;11223;49.968;9.062;2023-03-12T10:55:18;5.22;;;4.72;;
22113;SDS011;11223;49.968;9.062;2023-03-12T10:57:47;4.07;;;3.67;;
22113;SDS011;11223;49.968;9.062;2023-03-12T11:00:17;6.65;;;4.20;;
22113;SDS011;11223;49.968;9.062;2023-03-12T11:02:45;6.65;;;4.20;;
22113;SDS011;11223;49.968;9.062;2023-03-12T11:07:53;5.28;;;4.53;;
22113;SDS011;11223;49.968;9.062;2023-03-12T11:15:24;15.25;;;13.75;;
22113;SDS011;11223;49.968;9.062;2023-03-12T11:17:52;4.65;;;4.13;;
22113;SDS011;11223;49.968;9.062;2023-03-12T11:20:53;10.40;;;9.40;;
22113;SDS011;11223;49.968;9.062;2023-03-12T11:23:41;9.50;;;6.82;;
22113;SDS011;11223;49.968;9.062;2023-03-12T11:26:13;14.15;;;12.73;;
22113;SDS011;11223;49.968;9.062;2023-03-12T11:28:48;6.50;;;4.40;;
22113;SDS011;11223;49.968;9.062;2023-03-12T11:31:21;7.07;;;5.00;;
22113;SDS011;11223;49.968;9.062;2023-03-12T11:33:49;8.15;;;5.82;;
22113;SDS011;11223;49.968;9.062;2023-03-12T11:36:19;6.75;;;6.15;;
22113;SDS011;11223;49.968;9.062;2023-03-12T11:41:43;6.32;;;5.45;;
22113;SDS011;11223;49.968;9.062;2023-03-12T11:47:17;4.80;;;3.83;;
22113;SDS011;11223;49.968;9.062;2023-03-12T11:53:03;4.15;;;3.67;;
22113;SDS011;11223;49.968;9.062;2023-03-12T11:58:44;4.50;;;4.10;;
22113;SDS011;11223;49.968;9.062;2023-03-12T12:08:56;4.83;;;4.40;;
22113;SDS011;11223;49.968;9.062;2023-03-12T12:11:31;8.07;;;5.07;;
22113;SDS011;11223;49.968;9.062;2023-03-12T12:14:31;11.20;;;4.60;;
22113;SDS011;11223;49.968;9.062;2023-03-12T12:17:06;5.38;;;4.88;;
22113;SDS011;11223;49.968;9.062;2023-03-12T12:27:49;6.55;;;5.90;;
22113;SDS011;11223;49.968;9.062;2023-03-12T12:35:47;9.23;;;5.57;;
22113;SDS011;11223;49.968;9.062;2023-03-12T12:38:21;6.10;;;5.50;;
22113;SDS011;11223;49.968;9.062;2023-03-12T12:40:55;8.05;;;6.20;;
22113;SDS011;11223;49.968;9.062;2023-03-12T12:43:37;5.78;;;5.18;;
22113;SDS011;11223;49.968;9.062;2023-03-12T12:46:05;10.25;;;7.30;;
22113;SDS011;11223;49.968;9.062;2023-03-12T12:49:00;8.00;;;7.28;;
22113;SDS011;11223;49.968;9.062;2023-03-12T12:51:46;7.70;;;7.10;;
22113;SDS011;11223;49.968;9.062;2023-03-12T12:57:31;8.85;;;8.05;;
22113;SDS011;11223;49.968;9.062;2023-03-12T13:00:03;7.43;;;6.75;;
22113;SDS011;11223;49.968;9.062;2023-03-12T13:02:35;7.50;;;6.72;;
22113;SDS011;11223;49.968;9.062;2023-03-12T13:05:04;7.18;;;6.55;;
22113;SDS011;11223;49.968;9.062;2023-03-12T13:07:53;6.90;;;6.25;;
22113;SDS011;11223;49.968;9.062;2023-03-12T13:13:02;6.18;;;5.65;;
22113;SDS011;11223;49.968;9.062;2023-03-12T13:15:35;6.60;;;6.10;;
22113;SDS011;11223;49.968;9.062;2023-03-12T13:18:08;7.63;;;7.00;;
22113;SDS011;11223;49.968;9.062;2023-03-12T13:26:07;8.18;;;7.47;;
22113;SDS011;11223;49.968;9.062;2023-03-12T13:33:48;7.70;;;7.10;;
22113;SDS011;11223;49.968;9.062;2023-03-12T13:41:49;7.50;;;6.80;;
22113;SDS011;11223;49.968;9.062;2023-03-12T13:52:31;8.48;;;7.40;;
22113;SDS011;11223;49.968;9.062;2023-03-12T14:00:03;9.73;;;8.73;;
22113;SDS011;11223;49.968;9.062;2023-03-12T14:02:35;9.38;;;7.25;;
22113;SDS011;11223;49.968;9.062;2023-03-12T14:05:06;6.80;;;6.20;;
22113;SDS011;11223;49.968;9.062;2023-03-12T14:07:41;7.03;;;6.18;;
22113;SDS011;11223;49.968;9.062;2023-03-12T14:13:28;8.32;;;7.65;;
22113;SDS011;11223;49.968;9.062;2023-03-12T14:18:27;18.38;;;14.25;;
22113;SDS011;11223;49.968;9.062;2023-03-12T14:20:57;9.18;;;8.15;;
22113;SDS011;11223;49.968;9.062;2023-03-12T14:23:26;9.23;;;7.85;;
22113;SDS011;11223;49.968;9.062;2023-03-12T14:25:55;8.65;;;7.88;;
22113;SDS011;11223;49.968;9.062;2023-03-12T14:28:24;9.50;;;8.57;;
22113;SDS011;11223;49.968;9.062;2023-03-12T14:31:08;8.45;;;7.57;;
22113;SDS011;11223;49.968;9.062;2023-03-12T14:34:21;7.43;;;6.38;;
22113;SDS011;11223;49.968;9.062;2023-03-12T14:36:36;7.10;;;6.40;;
22113;SDS011;11223;49.968;9.062;2023-03-12T14:39:32;9.93;;;6.00;;
22113;SDS011;11223;49.968;9.062;2023-03-12T14:42:04;7.70;;;6.68;;
22113;SDS011;11223;49.968;9.062;2023-03-12T14:44:32;7.18;;;6.57;;
22113;SDS011;11223;49.968;9.062;2023-03-12T14:47:03;7.38;;;5.70;;
22113;SDS011;11223;49.968;9.062;2023-03-12T14:49:31;6.40;;;5.15;;
22113;SDS011;11223;49.968;9.062;2023-03-12T14:52:09;5.93;;;4.30;;
22113;SDS011;11223;49.968;9.062;2023-03-12T14:54:37;4.20;;;3.70;;
22113;SDS011;11223;49.968;9.062;2023-03-12T14:57:03;4.80;;;4.07;;
22113;SDS011;11223;49.968;9.062;2023-03-12T14:59:31;4.00;;;3.60;;
22113;SDS011;11223;49.968;9.062;2023-03-12T15:02:15;3.50;;;3.20;;
22113;SDS011;11223;49.968;9.062;2023-03-12T15:04:42;3.88;;;3.33;;
22113;SDS011;11223;49.968;9.062;2023-03-12T15:07:10;6.63;;;3.85;;
22113;SDS011;11223;49.968;9.062;2023-03-12T15:09:42;4.15;;;3.60;;
22113;SDS011;11223;49.968;9.062;2023-03-12T15:12:18;4.63;;;3.60;;
22113;SDS011;11223;49.968;9.062;2023-03-12T15:14:53;4.47;;;3.92;;
22113;SDS011;11223;49.968;9.062;2023-03-12T15:17:22;3.97;;;3.58;;
22113;SDS011;11223;49.968;9.062;2023-03-12T15:19:51;4.40;;;3.37;;
22113;SDS011;11223;49.968;9.062;2023-03-12T15:22:19;4.72;;;3.60;;
22113;SDS011;11223;49.968;9.062;2023-03-12T15:24:47;5.68;;;3.50;;
22113;SDS011;11223;49.968;9.062;2023-03-12T15:27:29;4.10;;;3.30;;
22113;SDS011;11223;49.968;9.062;2023-03-12T15:29:58;4.03;;;3.63;;
22113;SDS011;11223;49.968;9.062;2023-03-12T15:32:25;5.57;;;3.50;;
22113;SDS011;11223;49.968;9.062;2023-03-12T15:34:52;7.07;;;4.00;;
22113;SDS011;11223;49.968;9.062;2023-03-12T15:37:21;3.73;;;2.60;;
22113;SDS011;11223;49.968;9.062;2023-03-12T15:39:53;4.05;;;3.00;;
22113;SDS011;11223;49.968;9.062;2023-03-12T15:42:21;3.25;;;2.95;;
22113;SDS011;11223;49.968;9.062;2023-03-12T15:44:52;2.90;;;2.70;;
22113;SDS011;11223;49.968;9.062;2023-03-12T15:47:21;4.32;;;2.83;;
22113;SDS011;11223;49.968;9.062;2023-03-12T15:49:57;4.10;;;3.15;;
22113;SDS011;11223;49.968;9.062;2023-03-12T15:52:28;3.10;;;2.63;;
22113;SDS011;11223;49.968;9.062;2023-03-12T15:57:43;4.13;;;2.72;;
22113;SDS011;11223;49.968;9.062;2023-03-12T16:02:37;4.57;;;3.33;;
22113;SDS011;11223;49.968;9.062;2023-03-12T16:05:04;5.18;;;3.00;;
22113;SDS011;11223;49.968;9.062;2023-03-12T16:07:30;3.10;;;2.80;;
22113;SDS011;11223;49.968;9.062;2023-03-12T16:09:56;5.20;;;3.03;;
22113;SDS011;11223;49.968;9.062;2023-03-12T16:12:22;4.18;;;2.70;;
22113;SDS011;11223;49.968;9.062;2023-03-12T16:14:47;4.17;;;2.80;;
22113;SDS011;11223;49.968;9.062;2023-03-12T16:17:14;3.00;;;2.50;;
22113;SDS011;11223;49.968;9.062;2023-03-12T16:19:43;3.65;;;2.67;;
22113;SDS011;11223;49.968;9.062;2023-03-12T16:22:08;4.20;;;3.00;;
22113;SDS011;11223;49.968;9.062;2023-03-12T16:24:34;4.03;;;2.70;;
22113;SDS011;11223;49.968;9.062;2023-03-12T16:26:59;4.60;;;2.63;;
22113;SDS011;11223;49.968;9.062;2023-03-12T16:29:32;5.15;;;2.88;;
22113;SDS011;11223;49.968;9.062;2023-03-12T16:32:01;4.30;;;2.47;;
22113;SDS011;11223;49.968;9.062;2023-03-12T16:34:27;4.97;;;3.03;;
22113;SDS011;11223;49.968;9.062;2023-03-12T16:36:53;2.95;;;2.50;;
22113;SDS011;11223;49.968;9.062;2023-03-12T16:39:18;4.45;;;2.67;;
22113;SDS011;11223;49.968;9.062;2023-03-12T16:41:44;3.30;;;2.80;;
22113;SDS011;11223;49.968;9.062;2023-03-12T16:44:14;7.10;;;2.50;;
22113;SDS011;11223;49.968;9.062;2023-03-12T16:46:44;3.45;;;3.15;;
22113;SDS011;11223;49.968;9.062;2023-03-12T16:49:14;4.07;;;2.70;;